createdAt,value
2022-08-30T00:01:02.567Z,20.70
2022-08-30T00:05:04.279Z,20.70
2022-08-30T00:09:05.474Z,20.70
2022-08-30T00:13:07.350Z,20.80
2022-08-30T00:17:08.563Z,20.60
2022-08-30T00:21:10.479Z,20.60
2022-08-30T00:25:13.922Z,20.60
2022-08-30T00:29:15.250Z,20.60
2022-08-30T00:33:17.177Z,20.60
2022-08-30T00:37:19.604Z,20.70
2022-08-30T00:41:22.132Z,20.60
2022-08-30T00:45:29.782Z,20.50
2022-08-30T00:49:32.924Z,20.50
2022-08-30T00:53:37.860Z,20.50
2022-08-30T00:57:41.684Z,20.40
2022-08-30T01:01:43.298Z,20.40
2022-08-30T01:05:45.550Z,20.30
2022-08-30T01:09:46.885Z,20.10
2022-08-30T01:13:51.153Z,20.10
2022-08-30T01:17:52.368Z,20.10
2022-08-30T01:21:57.400Z,20.00
2022-08-30T01:26:01.656Z,19.90
2022-08-30T01:30:05.728Z,19.90
2022-08-30T01:34:07.368Z,19.80
2022-08-30T01:38:09.471Z,19.80
2022-08-30T01:42:10.812Z,19.60
2022-08-30T01:46:13.886Z,19.70
2022-08-30T01:50:16.036Z,19.50
2022-08-30T01:54:17.367Z,19.50
2022-08-30T01:58:18.601Z,19.50
2022-08-30T02:02:23.552Z,19.40
2022-08-30T02:06:25.379Z,19.50
2022-08-30T02:10:26.704Z,19.40
2022-08-30T02:14:27.985Z,19.30
2022-08-30T02:18:31.212Z,19.20
2022-08-30T02:22:32.769Z,19.40
2022-08-30T02:26:35.951Z,19.40
2022-08-30T02:30:37.818Z,19.40
2022-08-30T02:34:39.199Z,19.60
2022-08-30T02:38:40.396Z,19.60
2022-08-30T02:42:41.537Z,19.50
2022-08-30T02:46:43.262Z,19.50
2022-08-30T02:50:48.196Z,19.50
2022-08-30T02:54:49.721Z,19.40
2022-08-30T02:58:50.935Z,19.30
2022-08-30T03:02:52.168Z,19.10
2022-08-30T03:06:54.302Z,19.00
2022-08-30T03:10:58.768Z,18.90
2022-08-30T03:15:00.641Z,18.80
2022-08-30T03:19:01.854Z,18.80
2022-08-30T03:23:03.089Z,19.00
2022-08-30T03:27:04.325Z,19.00
2022-08-30T03:31:05.847Z,19.10
2022-08-30T03:35:08.499Z,18.90
2022-08-30T03:39:10.463Z,18.70
2022-08-30T03:43:13.691Z,18.40
2022-08-30T03:47:15.409Z,18.70
2022-08-30T03:51:16.647Z,18.70
2022-08-30T03:55:18.220Z,18.90
2022-08-30T03:59:19.427Z,18.80
2022-08-30T04:03:22.583Z,18.60
2022-08-30T04:07:23.834Z,18.50
2022-08-30T04:11:25.073Z,18.40
2022-08-30T04:15:26.398Z,18.40
2022-08-30T04:19:27.638Z,18.20
2022-08-30T04:23:28.863Z,18.10
2022-08-30T04:27:30.109Z,18.10
2022-08-30T04:31:31.443Z,18.10
2022-08-30T04:35:32.828Z,18.00
2022-08-30T04:39:34.054Z,17.90
2022-08-30T04:43:35.288Z,18.00
2022-08-30T04:47:38.521Z,18.00
2022-08-30T04:51:40.142Z,18.10
2022-08-30T04:55:42.870Z,18.20
2022-08-30T04:59:44.097Z,18.20
2022-08-30T05:03:45.995Z,18.30
2022-08-30T05:07:47.241Z,18.30
2022-08-30T05:11:48.470Z,18.20
2022-08-30T05:15:49.703Z,18.10
2022-08-30T05:19:50.926Z,17.90
2022-08-30T05:23:55.364Z,17.90
2022-08-30T05:27:56.922Z,17.80
2022-08-30T05:31:58.547Z,18.00
2022-08-30T05:35:59.827Z,18.00
2022-08-30T05:40:03.396Z,18.00
2022-08-30T05:44:09.203Z,17.90
2022-08-30T05:48:10.472Z,17.90
2022-08-30T05:52:16.748Z,18.10
2022-08-30T05:56:20.972Z,18.20
2022-08-30T06:00:24.215Z,18.50
2022-08-30T06:04:25.575Z,18.50
2022-08-30T06:08:27.276Z,18.60
2022-08-30T06:12:28.497Z,18.70
2022-08-30T06:16:30.016Z,18.90
2022-08-30T06:20:31.786Z,18.90
2022-08-30T06:24:55.846Z,18.70
2022-08-30T06:28:38.658Z,18.70
2022-08-30T06:32:40.460Z,18.90
2022-08-30T06:36:42.508Z,18.90
2022-08-30T06:40:43.824Z,18.90
2022-08-30T06:44:45.799Z,19.10
2022-08-30T06:48:48.540Z,19.20
2022-08-30T06:52:50.040Z,19.50
2022-08-30T06:56:59.084Z,19.90
2022-08-30T07:00:54.331Z,20.00
2022-08-30T07:04:55.873Z,20.40
2022-08-30T07:08:57.188Z,20.50
2022-08-30T07:12:58.399Z,20.70
2022-08-30T07:16:59.628Z,21.10
2022-08-30T07:21:16.077Z,21.40
2022-08-30T07:25:17.677Z,21.60
2022-08-30T07:29:20.713Z,21.80
2022-08-30T07:33:21.935Z,22.30
2022-08-30T07:37:23.660Z,22.80
2022-08-30T07:41:28.424Z,23.10
2022-08-30T07:45:29.877Z,23.00
2022-08-30T07:49:31.124Z,22.80
2022-08-30T07:53:32.493Z,23.00
2022-08-30T07:57:34.029Z,23.10
2022-08-30T08:01:35.290Z,23.40
2022-08-30T08:05:38.677Z,23.60
2022-08-30T08:09:40.134Z,23.90
2022-08-30T08:13:52.814Z,23.90
2022-08-30T08:17:46.086Z,24.20
2022-08-30T08:21:48.621Z,24.40
2022-08-30T08:25:50.582Z,24.60
2022-08-30T08:29:51.801Z,24.90
2022-08-30T08:33:53.509Z,25.30
2022-08-30T08:37:54.698Z,25.90
2022-08-30T08:42:21.965Z,26.30
2022-08-30T08:46:27.096Z,26.80
2022-08-30T08:50:29.447Z,26.70
2022-08-30T08:54:43.635Z,27.00
2022-08-30T08:58:48.372Z,26.80
2022-08-30T09:03:00.968Z,26.80
2022-08-30T09:07:20.583Z,26.80
2022-08-30T09:11:28.054Z,26.90
2022-08-30T09:15:32.322Z,27.30
2022-08-30T09:19:42.290Z,27.60
2022-08-30T09:23:50.235Z,27.70
2022-08-30T09:27:54.005Z,28.20
2022-08-30T09:32:25.127Z,28.50
2022-08-30T09:36:18.195Z,28.20
2022-08-30T09:40:35.606Z,28.20
2022-08-30T09:44:38.439Z,28.20
2022-08-30T09:48:43.596Z,28.40
2022-08-30T09:52:57.592Z,28.70
2022-08-30T09:57:12.890Z,28.60
2022-08-30T10:01:18.241Z,29.20
2022-08-30T10:05:46.803Z,29.60
2022-08-30T10:09:52.082Z,29.80
2022-08-30T10:14:13.820Z,30.10
2022-08-30T10:18:23.045Z,30.70
2022-08-30T10:22:28.223Z,30.80
2022-08-30T10:26:54.297Z,31.40
2022-08-30T10:31:16.513Z,31.80
2022-08-30T10:35:24.332Z,31.60
2022-08-30T10:39:30.895Z,31.50
2022-08-30T10:43:54.513Z,31.70
2022-08-30T10:48:20.852Z,32.40
2022-08-30T10:52:34.755Z,32.40
2022-08-30T10:56:40.093Z,31.80
2022-08-30T11:00:54.230Z,32.00
2022-08-30T11:05:16.098Z,32.10
2022-08-30T11:09:31.406Z,32.00
2022-08-30T11:13:35.709Z,31.60
2022-08-30T11:17:46.807Z,31.80
2022-08-30T11:21:49.939Z,32.20
2022-08-30T11:25:58.073Z,32.10
2022-08-30T11:30:02.704Z,32.10
2022-08-30T11:34:05.617Z,32.10
2022-08-30T11:38:25.387Z,32.20
2022-08-30T11:42:33.541Z,32.00
2022-08-30T11:46:39.398Z,31.60
2022-08-30T11:51:03.124Z,32.00
2022-08-30T11:55:26.547Z,32.60
2022-08-30T11:59:53.781Z,32.70
2022-08-30T12:04:15.587Z,32.50
2022-08-30T12:08:36.189Z,32.60
2022-08-30T12:12:45.848Z,31.10
2022-08-30T12:17:08.161Z,31.70
2022-08-30T12:21:16.242Z,32.60
2022-08-30T12:25:23.065Z,32.90
2022-08-30T12:29:27.310Z,33.40
2022-08-30T12:33:39.520Z,33.50
2022-08-30T12:37:38.399Z,33.20
2022-08-30T12:41:43.962Z,33.20
2022-08-30T12:45:50.634Z,33.20
2022-08-30T12:49:52.559Z,33.20
2022-08-30T12:53:57.918Z,33.20
2022-08-30T12:58:10.074Z,33.30
2022-08-30T13:02:20.067Z,32.90
2022-08-30T13:06:41.543Z,33.50
2022-08-30T13:10:56.061Z,33.50
2022-08-30T13:15:19.847Z,33.40
2022-08-30T13:19:33.927Z,33.50
2022-08-30T13:23:35.280Z,33.40
2022-08-30T13:27:38.156Z,33.50
2022-08-30T13:31:39.315Z,33.70
2022-08-30T13:35:40.512Z,33.60
2022-08-30T13:39:41.926Z,33.60
2022-08-30T13:47:49.506Z,33.80
2022-08-30T13:52:18.606Z,33.90
2022-08-30T13:55:55.964Z,33.60
2022-08-30T13:59:57.309Z,33.90
2022-08-30T14:04:15.524Z,33.70
2022-08-30T14:08:02.301Z,33.50
2022-08-30T14:12:04.369Z,33.20
2022-08-30T14:20:15.031Z,32.60
2022-08-30T14:24:14.912Z,32.70
2022-08-30T14:28:18.076Z,32.60
2022-08-30T14:32:19.572Z,32.30
2022-08-30T14:36:21.195Z,32.20
2022-08-30T14:40:23.677Z,31.90
2022-08-30T14:44:25.642Z,31.70
2022-08-30T14:48:27.325Z,31.70
2022-08-30T14:52:31.553Z,31.90
2022-08-30T14:56:32.976Z,31.90
2022-08-30T15:00:34.231Z,31.90
2022-08-30T15:04:37.309Z,31.90
2022-08-30T15:08:39.568Z,31.90
2022-08-30T15:12:41.198Z,31.90
2022-08-30T15:16:42.675Z,31.50
2022-08-30T15:20:46.235Z,32.00
2022-08-30T15:24:48.968Z,32.20
2022-08-30T15:28:51.323Z,32.10
2022-08-30T15:32:52.539Z,31.60
2022-08-30T15:36:53.781Z,31.10
2022-08-30T15:40:58.352Z,31.00
2022-08-30T15:44:59.583Z,31.30
2022-08-30T15:49:04.412Z,31.40
2022-08-30T15:53:06.154Z,31.30
2022-08-30T15:57:08.705Z,30.90
2022-08-30T16:01:11.080Z,30.70
2022-08-30T16:05:12.377Z,30.60
2022-08-30T16:09:13.623Z,30.50
2022-08-30T16:13:15.479Z,30.60
2022-08-30T16:17:16.900Z,30.60
2022-08-30T16:21:26.073Z,30.30
2022-08-30T16:25:40.090Z,30.30
2022-08-30T16:29:30.346Z,30.30
2022-08-30T16:33:32.575Z,30.30
2022-08-30T16:37:33.723Z,30.10
2022-08-30T16:41:36.532Z,29.90
2022-08-30T16:45:38.652Z,30.00
2022-08-30T16:49:40.882Z,29.90
2022-08-30T16:53:43.008Z,29.90
2022-08-30T16:57:44.416Z,29.90
2022-08-30T17:01:46.015Z,29.80
2022-08-30T17:05:50.016Z,29.70
2022-08-30T17:09:51.429Z,29.70
2022-08-30T17:13:53.173Z,29.50
2022-08-30T17:17:54.716Z,29.50
2022-08-30T17:21:58.024Z,29.20
2022-08-30T17:26:00.722Z,29.10
2022-08-30T17:30:02.493Z,29.10
2022-08-30T17:34:05.012Z,29.10
2022-08-30T17:38:06.382Z,28.90
2022-08-30T17:42:07.520Z,28.80
2022-08-30T17:46:17.839Z,28.80
2022-08-30T17:50:19.659Z,28.60
2022-08-30T17:54:20.982Z,28.40
2022-08-30T17:58:24.021Z,28.40
2022-08-30T18:02:29.717Z,28.40
2022-08-30T18:06:28.607Z,28.30
2022-08-30T18:10:34.588Z,28.20
2022-08-30T18:14:32.880Z,28.00
2022-08-30T18:18:36.716Z,27.90
2022-08-30T18:22:38.261Z,27.70
2022-08-30T18:26:42.919Z,27.60
2022-08-30T18:30:44.323Z,27.50
2022-08-30T18:34:45.552Z,27.30
2022-08-30T18:38:47.631Z,27.20
2022-08-30T18:42:48.821Z,27.00
2022-08-30T18:46:56.080Z,26.90
2022-08-30T18:50:53.192Z,26.80
2022-08-30T18:54:54.447Z,26.80
2022-08-30T18:58:57.463Z,26.60
2022-08-30T19:02:58.704Z,26.50
2022-08-30T19:06:59.932Z,26.50
2022-08-30T19:11:05.096Z,26.50
2022-08-30T19:15:10.663Z,26.50
2022-08-30T19:19:11.326Z,26.40
2022-08-30T19:23:14.357Z,26.30
2022-08-30T19:27:16.365Z,26.30
2022-08-30T19:31:17.543Z,26.20
2022-08-30T19:35:19.556Z,26.30
2022-08-30T19:39:20.940Z,26.30
2022-08-30T19:43:23.983Z,26.20
2022-08-30T19:47:25.838Z,26.10
2022-08-30T19:51:27.338Z,26.10
2022-08-30T19:55:31.292Z,26.00
2022-08-30T19:59:31.809Z,26.10
2022-08-30T20:03:33.243Z,25.80
2022-08-30T20:07:35.948Z,25.80
2022-08-30T20:11:38.308Z,25.70
2022-08-30T20:15:39.843Z,25.60
2022-08-30T20:19:41.879Z,25.50
2022-08-30T20:23:43.416Z,25.50
2022-08-30T20:27:45.349Z,25.50
2022-08-30T20:31:48.286Z,25.50
2022-08-30T20:35:51.126Z,25.20
2022-08-30T20:39:57.575Z,25.30
2022-08-30T20:43:59.412Z,25.40
2022-08-30T20:48:00.613Z,25.30
2022-08-30T20:52:02.236Z,25.40
2022-08-30T20:56:14.652Z,25.20
2022-08-30T21:00:16.196Z,25.30
2022-08-30T21:04:18.208Z,25.40
2022-08-30T21:08:19.658Z,25.40
2022-08-30T21:12:21.083Z,25.40
2022-08-30T21:16:22.766Z,25.50
2022-08-30T21:20:23.958Z,25.30
2022-08-30T21:24:25.198Z,25.40
2022-08-30T21:28:26.402Z,25.50
2022-08-30T21:32:27.653Z,25.50
2022-08-30T21:36:47.112Z,25.40
2022-08-30T21:40:48.820Z,25.10
2022-08-30T21:44:50.184Z,24.80
2022-08-30T21:48:51.844Z,24.90
2022-08-30T21:52:53.066Z,24.90
2022-08-30T21:57:00.385Z,24.80
2022-08-30T22:01:10.681Z,24.80
2022-08-30T22:05:12.775Z,24.80
2022-08-30T22:09:18.903Z,24.80
2022-08-30T22:13:20.053Z,24.90
2022-08-30T22:17:21.704Z,24.90
2022-08-30T22:21:25.417Z,24.90
2022-08-30T22:25:26.765Z,24.90
2022-08-30T22:29:29.032Z,24.90
2022-08-30T22:33:30.547Z,24.90
2022-08-30T22:37:31.762Z,24.80
2022-08-30T22:41:33.778Z,24.80
2022-08-30T22:45:34.981Z,24.80
2022-08-30T22:49:36.166Z,24.70
2022-08-30T22:53:38.125Z,24.80
2022-08-30T22:57:39.436Z,24.80
2022-08-30T23:01:46.326Z,24.80
2022-08-30T23:05:47.527Z,24.80
2022-08-30T23:09:48.759Z,24.80
2022-08-30T23:13:50.987Z,24.70
2022-08-30T23:17:54.261Z,24.60
2022-08-30T23:21:55.474Z,24.60
2022-08-30T23:26:18.167Z,24.50
2022-08-30T23:30:37.889Z,24.60
2022-08-30T23:34:59.147Z,24.50
2022-08-30T23:39:20.626Z,24.50
2022-08-30T23:43:40.165Z,24.50
2022-08-30T23:47:59.784Z,24.40
2022-08-30T23:52:19.694Z,24.40
2022-08-30T23:56:39.250Z,24.40
